Time;durP1;ratioP1;P1;durP2;ratioP2;P2;SDS_P1;SDS_P2;PMS_P1;PMS_P2;Temp;Humidity;BMP_temperature;BMP_pressure;BME280_temperature;BME280_humidity;BME280_pressure;Samples;Min_cycle;Max_cycle;Signal;HPM_P1;HPM_P2
2021/04/19 00:01:56;;;;;;;0.73;0.73;;;;;;;8.33;100.00;100554.31;5032364;28;20824;-58
2021/04/19 00:04:22;;;;;;;0.30;0.20;;;;;;;8.36;100.00;100550.75;5022428;28;20497;-59
2021/04/19 00:06:49;;;;;;;0.30;0.20;;;;;;;8.43;100.00;100548.00;5032330;28;20833;-58
2021/04/19 00:09:15;;;;;;;0.40;0.23;;;;;;;8.42;100.00;100546.25;5032200;28;20526;-58
2021/04/19 00:11:41;;;;;;;0.40;0.20;;;;;;;8.51;100.00;100542.59;5032219;28;20455;-58
2021/04/19 00:14:08;;;;;;;0.30;0.20;;;;;;;8.38;100.00;100539.28;5032115;28;20451;-59
2021/04/19 00:16:34;;;;;;;0.30;0.20;;;;;;;8.43;100.00;100541.84;5032142;28;20502;-58
2021/04/19 00:19:00;;;;;;;0.30;0.20;;;;;;;8.46;100.00;100532.06;5031260;28;20463;-58
2021/04/19 00:21:27;;;;;;;0.50;0.50;;;;;;;8.42;100.00;100542.75;5032142;28;20455;-58
2021/04/19 00:23:53;;;;;;;0.40;0.30;;;;;;;8.38;100.00;100535.75;5032153;28;20452;-59
2021/04/19 00:26:19;;;;;;;0.30;0.20;;;;;;;8.37;100.00;100531.34;5026433;28;20520;-58
2021/04/19 00:28:46;;;;;;;0.30;0.20;;;;;;;8.28;100.00;100524.38;5031488;28;20520;-60
2021/04/19 00:31:12;;;;;;;0.30;0.20;;;;;;;8.35;100.00;100528.69;5032220;28;20507;-58
2021/04/19 00:33:38;;;;;;;0.30;0.20;;;;;;;8.38;100.00;100523.38;5030021;28;20459;-58
2021/04/19 00:36:06;;;;;;;2.50;2.40;;;;;;;8.43;100.00;100526.81;5032044;28;20458;-58
2021/04/19 00:38:33;;;;;;;0.30;0.20;;;;;;;8.31;100.00;100521.69;5031960;28;20513;-58
2021/04/19 00:41:01;;;;;;;0.30;0.20;;;;;;;8.33;100.00;100515.44;5032075;28;20451;-58
2021/04/19 00:43:28;;;;;;;1.80;1.70;;;;;;;8.30;100.00;100517.28;5004565;28;20540;-58
2021/04/19 00:46:02;;;;;;;0.30;0.10;;;;;;;8.37;100.00;100512.81;5030783;28;20487;-58
2021/04/19 00:48:30;;;;;;;0.40;0.30;;;;;;;8.36;100.00;100513.69;5032181;28;20801;-58
2021/04/19 00:50:57;;;;;;;0.30;0.20;;;;;;;8.34;100.00;100508.41;5031974;28;20455;-58
2021/04/19 00:53:25;;;;;;;0.30;0.17;;;;;;;8.39;100.00;100511.88;5031863;28;20873;-58
2021/04/19 00:55:53;;;;;;;0.50;0.50;;;;;;;8.41;100.00;100510.09;5031688;28;20866;-58
2021/04/19 00:58:24;;;;;;;1.13;1.13;;;;;;;8.33;100.00;100515.44;5030599;28;20452;-58
2021/04/19 01:00:50;;;;;;;0.30;0.20;;;;;;;8.38;100.00;100510.13;5033606;28;21051;-58
2021/04/19 01:03:17;;;;;;;0.30;0.20;;;;;;;8.37;100.00;100510.16;5029392;28;20452;-59
2021/04/19 01:05:47;;;;;;;0.30;0.20;;;;;;;8.33;100.00;100511.94;5031459;28;20502;-58
2021/04/19 01:08:13;;;;;;;0.60;0.60;;;;;;;8.32;100.00;100510.19;5035490;28;20517;-58
2021/04/19 01:10:39;;;;;;;0.43;0.33;;;;;;;8.29;100.00;100510.25;5035041;28;20475;-59
2021/04/19 01:13:06;;;;;;;0.30;0.20;;;;;;;8.33;100.00;100507.50;5035772;28;20455;-58
2021/04/19 01:15:33;;;;;;;1.47;1.43;;;;;;;8.34;100.00;100505.75;5035374;28;20459;-58
2021/04/19 01:18:00;;;;;;;0.30;0.20;;;;;;;8.40;100.00;100510.97;5035306;28;20944;-58
2021/04/19 01:20:30;;;;;;;0.30;0.20;;;;;;;8.40;100.00;100504.81;5034151;28;20479;-58
2021/04/19 01:22:58;;;;;;;0.30;0.20;;;;;;;8.38;100.00;100502.19;5035250;28;21044;-58
2021/04/19 01:25:27;;;;;;;0.40;0.20;;;;;;;8.45;100.00;100498.53;5033586;28;21000;-58
2021/04/19 01:27:54;;;;;;;1.20;1.17;;;;;;;8.40;100.00;100504.81;5028812;28;20447;-58
2021/04/19 01:30:24;;;;;;;0.30;0.20;;;;;;;8.33;100.00;100506.63;5063821;23;20497;-51
2021/04/19 01:32:50;;;;;;;0.30;0.20;;;;;;;8.32;100.00;100503.13;5073215;28;20450;-52
2021/04/19 01:35:18;;;;;;;0.30;0.20;;;;;;;8.23;100.00;100508.56;5074780;28;20446;-51
2021/04/19 01:37:44;;;;;;;0.93;0.93;;;;;;;8.15;100.00;100497.22;5074774;28;20485;-51
2021/04/19 01:40:17;;;;;;;0.47;0.47;;;;;;;8.21;100.00;100501.53;5068412;28;20483;-51
2021/04/19 01:42:47;;;;;;;0.30;0.20;;;;;;;8.30;100.00;100501.41;5068451;28;20499;-52
2021/04/19 01:45:15;;;;;;;0.30;0.20;;;;;;;8.38;100.00;100496.03;5062945;28;20486;-51
2021/04/19 01:47:42;;;;;;;0.30;0.20;;;;;;;8.29;100.00;100494.34;5061386;28;20447;-51
2021/04/19 01:50:18;;;;;;;0.30;0.20;;;;;;;8.31;100.00;100497.84;5066093;28;20467;-51
2021/04/19 01:52:45;;;;;;;0.40;0.30;;;;;;;8.26;100.00;100499.69;5067857;28;20450;-51
2021/04/19 01:55:18;;;;;;;0.30;0.20;;;;;;;8.28;100.00;100495.25;5065803;28;20442;-52
2021/04/19 01:57:48;;;;;;;0.30;0.20;;;;;;;8.20;100.00;100491.84;5061027;28;20446;-51
2021/04/19 02:00:15;;;;;;;0.30;0.20;;;;;;;8.15;100.00;100483.97;5062777;28;20522;-51
2021/04/19 02:03:07;;;;;;;3.70;1.50;;;;;;;8.18;100.00;100491.88;5067520;28;20977;-52
2021/04/19 02:05:49;;;;;;;0.30;0.20;;;;;;;8.17;100.00;100498.06;5067598;28;20489;-51
2021/04/19 02:08:29;;;;;;;0.30;0.20;;;;;;;7.96;100.00;100491.34;5065764;28;20447;-51
2021/04/19 02:11:04;;;;;;;0.30;0.20;;;;;;;7.99;100.00;100495.69;5060269;28;20841;-52
2021/04/19 02:13:51;;;;;;;0.30;0.20;;;;;;;8.06;100.00;100488.53;5061025;28;20442;-51
2021/04/19 02:16:27;;;;;;;0.30;0.20;;;;;;;7.92;100.00;100492.25;5063658;28;20451;-52
2021/04/19 02:19:12;;;;;;;0.30;0.20;;;;;;;7.81;100.00;100494.19;5067551;28;20453;-51
2021/04/19 02:21:54;;;;;;;1.20;1.20;;;;;;;7.90;100.00;100495.81;5067778;28;20507;-52
2021/04/19 02:24:28;;;;;;;0.67;0.67;;;;;;;7.91;100.00;100494.94;5063879;28;20543;-51
2021/04/19 02:26:57;;;;;;;0.30;0.20;;;;;;;7.84;100.00;100493.28;5060549;28;20508;-52
2021/04/19 02:29:46;;;;;;;0.73;0.73;;;;;;;7.91;100.00;100497.56;5062477;28;20467;-52
2021/04/19 02:32:16;;;;;;;0.30;0.20;;;;;;;7.93;100.00;100496.66;5049768;28;20504;-51
2021/04/19 02:34:44;;;;;;;0.43;0.43;;;;;;;7.87;100.00;100482.66;5056634;28;20447;-51
2021/04/19 02:37:11;;;;;;;0.87;0.80;;;;;;;7.95;100.00;100486.94;5065433;28;20454;-51
2021/04/19 02:39:41;;;;;;;0.30;0.20;;;;;;;8.03;100.00;100497.41;5066744;28;20470;-52
2021/04/19 02:42:09;;;;;;;0.30;0.10;;;;;;;8.11;100.00;100490.22;5063085;28;20938;-51
2021/04/19 02:44:36;;;;;;;0.30;0.20;;;;;;;8.09;100.00;100485.84;5059863;28;20997;-51
2021/04/19 02:47:04;;;;;;;0.30;0.20;;;;;;;8.01;100.00;100494.78;5063845;28;20454;-51
2021/04/19 02:49:33;;;;;;;0.30;0.20;;;;;;;8.08;100.00;100498.19;5066893;28;20549;-51
2021/04/19 02:52:02;;;;;;;0.30;0.17;;;;;;;8.11;100.00;100497.28;5063966;28;20450;-52
2021/04/19 02:54:30;;;;;;;0.30;0.10;;;;;;;8.13;100.00;100491.06;5059854;28;20442;-51
2021/04/19 02:56:57;;;;;;;0.30;0.20;;;;;;;8.12;100.00;100493.75;5061765;28;20960;-51
2021/04/19 02:59:29;;;;;;;0.30;0.20;;;;;;;8.21;100.00;100491.81;5066401;28;20470;-51
2021/04/19 03:02:01;;;;;;;0.30;0.20;;;;;;;8.22;100.00;100490.03;5066040;28;20537;-51
2021/04/19 03:04:35;;;;;;;0.30;0.20;;;;;;;8.21;100.00;100486.50;5050438;28;21037;-52
2021/04/19 03:07:04;;;;;;;0.30;0.20;;;;;;;8.23;100.00;100499.75;5066536;28;20503;-52
2021/04/19 03:09:30;;;;;;;0.47;0.47;;;;;;;8.19;100.00;100492.75;5061150;28;20878;-52
2021/04/19 03:12:00;;;;;;;0.30;0.20;;;;;;;8.22;100.00;100490.03;5059842;28;20446;-51
2021/04/19 03:14:32;;;;;;;0.30;0.20;;;;;;;8.19;100.00;100496.25;5064328;28;20434;-52
2021/04/19 03:17:12;;;;;;;0.30;0.20;;;;;;;8.19;100.00;100485.66;5066271;28;20870;-51
2021/04/19 03:19:48;;;;;;;0.30;0.20;;;;;;;8.21;100.00;100483.00;5053487;28;20521;-52
2021/04/19 03:22:14;;;;;;;0.30;0.10;;;;;;;8.08;100.00;100482.31;5066167;28;20442;-51
2021/04/19 03:24:42;;;;;;;0.30;0.30;;;;;;;8.15;100.00;100491.03;5064976;28;20889;-52
2021/04/19 03:27:10;;;;;;;0.30;0.10;;;;;;;8.22;100.00;100488.28;5059367;28;20465;-51
2021/04/19 03:29:38;;;;;;;0.30;0.20;;;;;;;8.21;100.00;100489.16;5059599;28;21058;-51
2021/04/19 03:32:08;;;;;;;0.30;0.20;;;;;;;8.23;100.00;100495.34;5066059;28;20462;-51
2021/04/19 03:34:36;;;;;;;0.80;0.80;;;;;;;8.30;100.00;100501.41;5065979;28;20474;-51
2021/04/19 03:37:06;;;;;;;0.30;0.20;;;;;;;8.29;100.00;100491.69;5046712;28;20457;-52
2021/04/19 03:39:34;;;;;;;0.30;0.20;;;;;;;8.20;100.00;100489.19;5059291;28;20471;-52
2021/04/19 03:42:02;;;;;;;3.17;0.73;;;;;;;8.22;100.00;100484.75;5064727;28;20454;-52
2021/04/19 03:44:32;;;;;;;2.23;1.03;;;;;;;8.27;100.00;100481.13;5065882;28;20531;-52
2021/04/19 03:47:00;;;;;;;0.30;0.20;;;;;;;8.26;100.00;100486.47;5061072;28;20468;-52
2021/04/19 03:49:31;;;;;;;0.30;0.20;;;;;;;8.04;100.00;100485.91;5058766;28;21056;-51
2021/04/19 03:52:02;;;;;;;0.30;0.20;;;;;;;8.23;100.00;100475.94;5063410;28;20438;-51
2021/04/19 03:54:33;;;;;;;0.50;0.50;;;;;;;8.38;100.00;100475.72;5065936;28;20446;-52
2021/04/19 03:57:02;;;;;;;0.30;0.20;;;;;;;8.33;100.00;100475.72;5063054;28;20445;-51
2021/04/19 03:59:30;;;;;;;0.30;0.20;;;;;;;8.32;100.00;100478.41;5058520;28;20476;-52
2021/04/19 04:02:03;;;;;;;0.30;0.20;;;;;;;8.22;100.00;100477.69;5053420;28;20550;-52
2021/04/19 04:04:31;;;;;;;0.30;0.20;;;;;;;8.26;100.00;100473.22;5051799;28;20492;-52
2021/04/19 04:06:59;;;;;;;0.30;0.20;;;;;;;8.33;100.00;100472.19;5060068;28;20824;-51
2021/04/19 04:09:26;;;;;;;0.30;0.20;;;;;;;8.30;100.00;100467.84;5065644;28;20466;-52
2021/04/19 04:11:53;;;;;;;0.30;0.20;;;;;;;8.33;100.00;100474.84;5064836;28;20809;-52
2021/04/19 04:14:19;;;;;;;0.87;0.87;;;;;;;8.41;100.00;100475.66;5058392;28;20847;-52
2021/04/19 04:16:45;;;;;;;0.73;0.73;;;;;;;8.38;100.00;100470.41;5059459;28;20738;-51
2021/04/19 04:19:12;;;;;;;0.87;0.67;;;;;;;8.43;100.00;100471.19;5063420;28;20537;-52
2021/04/19 04:21:39;;;;;;;0.40;0.20;;;;;;;8.31;100.00;100474.88;5065374;28;20454;-51
2021/04/19 04:24:06;;;;;;;0.30;0.20;;;;;;;8.23;100.00;100475.94;5059649;28;20446;-52
2021/04/19 04:26:33;;;;;;;0.30;0.20;;;;;;;8.23;100.00;100481.22;5058431;28;20447;-51
2021/04/19 04:28:59;;;;;;;0.30;0.20;;;;;;;8.17;100.00;100484.81;5072023;28;20953;-52
2021/04/19 04:31:26;;;;;;;0.30;0.20;;;;;;;8.19;100.00;100484.78;5058617;28;20462;-52
2021/04/19 04:33:52;;;;;;;0.30;0.20;;;;;;;8.23;100.00;100482.09;5060056;28;20951;-52
2021/04/19 04:36:18;;;;;;;0.93;0.80;;;;;;;8.18;100.00;100483.03;5067293;28;20446;-52
2021/04/19 04:38:45;;;;;;;0.30;0.20;;;;;;;8.01;100.00;100481.53;5064013;28;20575;-52
2021/04/19 04:41:11;;;;;;;0.30;0.20;;;;;;;7.97;100.00;100484.25;5062672;28;20501;-52
2021/04/19 04:43:40;;;;;;;0.30;0.20;;;;;;;7.89;100.00;100489.66;5068626;28;20446;-52
2021/04/19 04:46:22;;;;;;;0.40;0.30;;;;;;;7.93;100.00;100478.13;5069207;28;20503;-52
2021/04/19 04:49:04;;;;;;;0.30;0.20;;;;;;;7.95;100.00;100491.34;5066234;28;20519;-52
2021/04/19 04:51:33;;;;;;;0.30;0.20;;;;;;;7.90;100.00;100488.75;5062137;28;20454;-52
2021/04/19 04:54:07;;;;;;;0.30;0.20;;;;;;;7.70;100.00;100498.75;5063190;28;20834;-52
2021/04/19 04:56:36;;;;;;;0.30;0.20;;;;;;;7.89;100.00;100492.31;5062899;28;20814;-52
2021/04/19 04:59:03;;;;;;;0.30;0.20;;;;;;;7.97;100.00;100490.44;5061860;28;20872;-52
2021/04/19 05:01:32;;;;;;;0.30;0.17;;;;;;;8.02;100.00;100493.88;5068004;28;20939;-52
2021/04/19 05:04:01;;;;;;;0.40;0.30;;;;;;;7.88;100.00;100500.28;5049059;28;20867;-52
2021/04/19 05:06:28;;;;;;;0.30;0.20;;;;;;;7.93;100.00;100493.13;5063353;28;20574;-52
2021/04/19 05:08:55;;;;;;;0.30;0.20;;;;;;;7.92;100.00;100489.59;5062196;28;20454;-52
2021/04/19 05:11:22;;;;;;;0.30;0.20;;;;;;;8.05;100.00;100494.72;5067010;28;20473;-52
2021/04/19 05:13:49;;;;;;;0.30;0.20;;;;;;;8.15;100.00;100499.88;5069072;28;20450;-52
2021/04/19 05:16:28;;;;;;;0.30;0.20;;;;;;;8.22;100.00;100501.53;5062956;28;20458;-52
2021/04/19 05:18:56;;;;;;;0.30;0.20;;;;;;;8.29;100.00;100494.34;5058598;28;20810;-52
2021/04/19 05:21:23;;;;;;;0.50;0.50;;;;;;;8.33;100.00;100494.25;5067245;28;20591;-52
2021/04/19 05:23:49;;;;;;;0.30;0.20;;;;;;;8.38;100.00;100496.03;5061724;28;20515;-52
2021/04/19 05:26:15;;;;;;;0.30;0.20;;;;;;;8.48;100.00;100493.16;5063015;28;20490;-52
2021/04/19 05:28:43;;;;;;;0.30;0.20;;;;;;;8.49;100.00;100489.63;5068610;28;20450;-52
2021/04/19 05:31:12;;;;;;;0.47;0.30;;;;;;;8.56;100.00;100493.06;5067031;28;20473;-52
2021/04/19 05:33:39;;;;;;;0.43;0.43;;;;;;;8.66;100.00;100497.31;5061534;28;20450;-52
2021/04/19 05:36:12;;;;;;;0.30;0.20;;;;;;;8.87;100.00;100490.72;5062393;28;20447;-52
2021/04/19 05:38:42;;;;;;;0.30;0.20;;;;;;;8.64;100.00;100500.88;5062793;28;20983;-52
2021/04/19 05:41:14;;;;;;;0.30;0.20;;;;;;;8.49;100.00;100496.69;5061829;28;20495;-52
2021/04/19 05:43:44;;;;;;;0.30;0.20;;;;;;;8.52;100.00;100502.84;5067303;28;20457;-52
2021/04/19 05:46:15;;;;;;;1.30;1.10;;;;;;;8.33;100.00;100496.03;5067663;28;20493;-52
2021/04/19 05:48:42;;;;;;;0.30;0.20;;;;;;;8.46;100.00;100502.03;5064183;28;20445;-53
2021/04/19 05:51:19;;;;;;;0.30;0.20;;;;;;;8.57;100.00;100502.75;5061103;28;20477;-52
2021/04/19 05:53:48;;;;;;;0.63;0.63;;;;;;;8.70;100.00;100499.00;5063772;28;20446;-52
2021/04/19 05:56:26;;;;;;;0.30;0.20;;;;;;;8.63;100.00;100502.63;5067907;28;20534;-52
2021/04/19 05:59:10;;;;;;;0.30;0.20;;;;;;;8.74;100.00;100505.97;5067416;28;20454;-52
2021/04/19 06:01:39;;;;;;;0.40;0.30;;;;;;;8.69;100.00;100512.28;5052183;28;20867;-52
2021/04/19 06:04:14;;;;;;;0.40;0.30;;;;;;;8.73;100.00;100509.53;5060787;28;20447;-52
2021/04/19 06:07:05;;;;;;;0.40;0.33;;;;;;;9.02;100.00;100513.44;5063800;28;20445;-52
2021/04/19 06:09:42;;;;;;;0.30;0.20;;;;;;;9.17;100.00;100511.34;5061461;28;20986;-52
2021/04/19 06:12:11;;;;;;;0.67;0.67;;;;;;;9.30;100.00;100521.72;5060802;28;20461;-52
2021/04/19 06:14:43;;;;;;;0.30;0.20;;;;;;;9.40;100.00;100512.69;5065590;28;20463;-52
2021/04/19 06:17:11;;;;;;;0.30;0.20;;;;;;;9.42;100.00;100513.53;5067529;28;20459;-52
2021/04/19 06:19:42;;;;;;;0.87;0.87;;;;;;;9.61;100.00;100517.56;5054009;28;21052;-52
2021/04/19 06:22:09;;;;;;;0.60;0.60;;;;;;;9.55;100.00;100516.81;5067594;28;20798;-52
2021/04/19 06:24:35;;;;;;;0.30;0.20;;;;;;;9.52;100.00;100517.75;5065850;28;20493;-52
2021/04/19 06:27:02;;;;;;;0.30;0.10;;;;;;;9.87;100.00;100514.34;5060586;28;20457;-52
2021/04/19 06:29:29;;;;;;;0.30;0.20;;;;;;;10.04;100.00;100516.63;5062480;28;20510;-52
2021/04/19 06:31:57;;;;;;;0.83;0.80;;;;;;;10.17;100.00;100515.44;5067295;28;20454;-52
2021/04/19 06:34:23;;;;;;;0.30;0.20;;;;;;;10.17;100.00;100514.56;5066423;28;20445;-52
2021/04/19 06:36:51;;;;;;;0.70;0.70;;;;;;;10.54;100.00;100517.22;5060605;28;20956;-52
2021/04/19 06:39:19;;;;;;;0.30;0.20;;;;;;;10.42;100.00;100526.41;5061593;28;20454;-52
2021/04/19 06:41:47;;;;;;;0.30;0.20;;;;;;;10.39;100.00;100518.47;5067026;28;20455;-53
2021/04/19 06:44:14;;;;;;;0.30;0.20;;;;;;;10.50;100.00;100518.22;5066857;28;20446;-52
2021/04/19 06:46:44;;;;;;;0.30;0.20;;;;;;;10.52;100.00;100516.38;5047523;28;20485;-52
2021/04/19 06:49:13;;;;;;;0.40;0.30;;;;;;;10.45;100.00;100523.66;5059988;28;20505;-53
2021/04/19 06:51:40;;;;;;;0.40;0.40;;;;;;;10.46;100.00;100522.75;5066160;28;20512;-52
2021/04/19 06:54:07;;;;;;;0.30;0.20;;;;;;;10.76;100.00;100513.13;5066754;28;20457;-53
2021/04/19 06:56:38;;;;;;;0.40;0.30;;;;;;;10.76;100.00;100517.56;5060790;28;20441;-52
2021/04/19 06:59:05;;;;;;;0.40;0.30;;;;;;;10.94;100.00;100515.28;5058961;28;20451;-52
2021/04/19 07:01:32;;;;;;;0.30;0.20;;;;;;;11.11;100.00;100512.22;5064967;28;20450;-52
2021/04/19 07:04:01;;;;;;;0.67;0.53;;;;;;;10.92;100.00;100508.28;5048306;28;20455;-52
2021/04/19 07:06:32;;;;;;;0.30;0.20;;;;;;;10.92;100.00;100514.47;5062104;28;20580;-52
2021/04/19 07:09:20;;;;;;;0.77;0.77;;;;;;;11.15;100.00;100505.00;5059504;28;21064;-52
2021/04/19 07:11:51;;;;;;;0.30;0.20;;;;;;;11.16;100.00;100512.06;5059425;28;20451;-52
2021/04/19 07:14:18;;;;;;;0.40;0.40;;;;;;;11.24;100.00;100510.09;5066610;28;20458;-52
2021/04/19 07:16:44;;;;;;;0.80;0.80;;;;;;;11.21;100.00;100516.34;5065292;28;20442;-52
2021/04/19 07:19:11;;;;;;;2.20;2.10;;;;;;;11.20;100.00;100506.63;5064686;28;20951;-52
2021/04/19 07:21:38;;;;;;;0.30;0.20;;;;;;;11.28;100.00;100517.06;5066220;28;20482;-52
2021/04/19 07:24:05;;;;;;;2.33;2.23;;;;;;;11.46;100.00;100511.19;5060161;28;20809;-52
2021/04/19 07:26:32;;;;;;;0.30;0.20;;;;;;;11.40;100.00;100511.41;5059486;28;20486;-52
2021/04/19 07:29:02;;;;;;;3.07;1.80;;;;;;;11.73;100.00;100517.50;5065207;28;20458;-52
2021/04/19 07:31:45;;;;;;;0.40;0.40;;;;;;;11.49;100.00;100516.44;5066174;28;20462;-52
2021/04/19 07:34:30;;;;;;;0.30;0.20;;;;;;;11.66;100.00;100513.31;5063060;28;20452;-52
2021/04/19 07:37:02;;;;;;;0.30;0.20;;;;;;;11.36;99.22;100520.34;5059473;28;20446;-52
2021/04/19 07:39:31;;;;;;;0.30;0.20;;;;;;;11.21;100.00;100516.34;5059082;28;20471;-53
2021/04/19 07:42:05;;;;;;;0.43;0.40;;;;;;;11.46;100.00;100507.66;5064993;28;20450;-52
2021/04/19 07:44:45;;;;;;;1.10;1.03;;;;;;;11.35;100.00;100504.44;5065714;28;20812;-52
2021/04/19 07:47:24;;;;;;;0.30;0.20;;;;;;;11.37;100.00;100503.47;5063372;28;20458;-52
2021/04/19 07:50:20;;;;;;;0.30;0.20;;;;;;;11.31;100.00;100502.78;5058953;28;20470;-52
2021/04/19 07:52:59;;;;;;;0.30;0.20;;;;;;;10.95;99.36;100509.06;5059078;28;20498;-52
2021/04/19 07:55:44;;;;;;;0.30;0.20;;;;;;;11.01;99.98;100501.84;5059808;28;20536;-52
2021/04/19 07:58:25;;;;;;;0.30;0.20;;;;;;;11.13;100.00;100499.72;5047757;28;20446;-52
2021/04/19 08:01:01;;;;;;;0.40;0.30;;;;;;;11.20;99.19;100503.06;5058982;28;20481;-52
2021/04/19 08:03:39;;;;;;;0.33;0.20;;;;;;;11.22;99.58;100503.91;5061479;28;20455;-52
2021/04/19 08:06:23;;;;;;;0.73;0.73;;;;;;;11.35;98.25;100505.31;5065898;28;20490;-52
2021/04/19 08:08:49;;;;;;;0.30;0.20;;;;;;;11.39;100.00;100508.78;5065514;28;20452;-52
2021/04/19 08:11:17;;;;;;;0.30;0.20;;;;;;;11.51;99.23;100514.63;5060397;28;20544;-52
2021/04/19 08:13:45;;;;;;;0.30;0.20;;;;;;;11.24;100.00;100504.75;5058425;28;20451;-52
2021/04/19 08:16:17;;;;;;;0.30;0.20;;;;;;;11.69;99.45;100502.56;5064019;28;20443;-52
2021/04/19 08:18:50;;;;;;;0.30;0.20;;;;;;;11.32;98.18;100508.06;5063641;28;20442;-52
2021/04/19 08:21:26;;;;;;;0.30;0.20;;;;;;;11.52;97.77;100507.50;5063231;28;20481;-52
2021/04/19 08:23:52;;;;;;;0.30;0.20;;;;;;;11.41;96.90;100507.81;5058359;28;20445;-52
2021/04/19 08:26:19;;;;;;;0.30;0.20;;;;;;;11.52;96.79;100503.06;5059928;28;20502;-52
2021/04/19 08:28:48;;;;;;;0.30;0.20;;;;;;;11.16;98.82;100507.63;5064996;28;20455;-52
2021/04/19 08:31:16;;;;;;;0.30;0.20;;;;;;;11.49;99.26;100507.56;5064417;28;20481;-52
2021/04/19 08:33:44;;;;;;;0.30;0.20;;;;;;;11.36;98.42;100511.50;5058464;28;20485;-52
2021/04/19 08:36:14;;;;;;;0.30;0.20;;;;;;;11.37;98.13;100502.59;5058879;28;20447;-52
2021/04/19 08:38:41;;;;;;;0.30;0.20;;;;;;;11.14;98.45;100506.78;5058718;28;20507;-52
2021/04/19 08:41:09;;;;;;;0.30;0.20;;;;;;;11.28;98.54;100501.97;5058304;28;20479;-52
2021/04/19 08:43:38;;;;;;;0.40;0.40;;;;;;;11.35;98.62;100518.63;5065181;28;20455;-52
2021/04/19 08:46:07;;;;;;;0.30;0.20;;;;;;;11.47;97.81;100522.72;5065269;28;20496;-52
2021/04/19 08:48:34;;;;;;;0.40;0.30;;;;;;;11.51;97.89;100508.41;5059723;28;20458;-52
2021/04/19 08:51:04;;;;;;;0.30;0.20;;;;;;;11.77;98.27;100519.16;5058095;28;20471;-53
2021/04/19 08:53:30;;;;;;;0.30;0.20;;;;;;;11.24;99.91;100520.72;5064016;28;20845;-52
2021/04/19 08:56:02;;;;;;;0.30;0.20;;;;;;;11.58;99.93;100516.19;5064099;28;20442;-52
2021/04/19 08:58:30;;;;;;;0.30;0.20;;;;;;;11.38;100.00;100523.00;5060725;28;20446;-52
2021/04/19 09:00:59;;;;;;;0.30;0.20;;;;;;;11.43;100.00;100523.72;5058393;28;20467;-52
2021/04/19 09:03:26;;;;;;;0.30;0.20;;;;;;;11.59;98.51;100522.38;5062096;28;20943;-52
2021/04/19 09:05:52;;;;;;;0.30;0.20;;;;;;;11.38;98.34;100523.00;5063930;28;20619;-52
2021/04/19 09:08:22;;;;;;;0.33;0.20;;;;;;;11.51;99.09;100509.31;5059968;28;20812;-52
2021/04/19 09:10:55;;;;;;;0.30;0.20;;;;;;;11.18;100.00;100520.88;5056818;28;20469;-52
2021/04/19 09:13:39;;;;;;;0.30;0.20;;;;;;;11.34;100.00;100522.19;5060683;28;20447;-52
2021/04/19 09:16:17;;;;;;;0.30;0.20;;;;;;;11.11;100.00;100525.50;5058391;28;20954;-52
2021/04/19 09:18:46;;;;;;;0.53;0.50;;;;;;;11.06;100.00;100532.72;5056130;28;20442;-52
2021/04/19 09:21:39;;;;;;;0.53;0.53;;;;;;;11.03;100.00;100524.81;5063725;28;20469;-52
2021/04/19 09:24:08;;;;;;;0.57;0.57;;;;;;;10.96;100.00;100532.09;5050731;28;20437;-52
2021/04/19 09:26:49;;;;;;;0.30;0.20;;;;;;;10.77;100.00;100521.97;5061328;28;20540;-52
2021/04/19 09:29:43;;;;;;;0.30;0.27;;;;;;;10.94;100.00;100523.28;5065220;28;20489;-52
2021/04/19 09:32:19;;;;;;;0.30;0.20;;;;;;;10.97;100.00;100528.53;5047040;28;20549;-52
2021/04/19 09:34:49;;;;;;;0.30;0.20;;;;;;;11.04;100.00;100531.88;5056498;28;20538;-52
2021/04/19 09:37:43;;;;;;;0.73;0.73;;;;;;;11.45;99.99;100519.22;5066302;28;20457;-52
2021/04/19 09:40:16;;;;;;;0.30;0.20;;;;;;;11.59;99.92;100522.38;5058026;28;20479;-52
2021/04/19 09:43:02;;;;;;;0.30;0.20;;;;;;;11.67;100.00;100528.38;5067907;28;20462;-52
2021/04/19 09:45:41;;;;;;;0.47;0.43;;;;;;;11.68;100.00;100518.59;5064559;28;21009;-52
2021/04/19 09:48:25;;;;;;;0.30;0.20;;;;;;;12.12;97.75;100522.59;5061233;28;20449;-53
2021/04/19 09:50:56;;;;;;;0.30;0.20;;;;;;;12.30;97.50;100524.66;5059740;28;20837;-53
2021/04/19 09:53:23;;;;;;;0.30;0.20;;;;;;;12.40;95.50;100527.91;5067117;28;20450;-53
2021/04/19 09:55:50;;;;;;;0.30;0.20;;;;;;;12.51;94.48;100511.56;5067877;28;20495;-53
2021/04/19 09:58:17;;;;;;;0.30;0.20;;;;;;;12.43;95.82;100509.16;5062400;28;20465;-53
2021/04/19 10:00:43;;;;;;;0.30;0.20;;;;;;;12.44;96.20;100505.56;5061091;28;20471;-53
2021/04/19 10:03:10;;;;;;;0.30;0.20;;;;;;;12.61;94.99;100510.31;5066647;28;20500;-53
2021/04/19 10:05:38;;;;;;;0.30;0.20;;;;;;;12.62;96.68;100510.31;5067741;28;20497;-53
2021/04/19 10:08:06;;;;;;;0.40;0.20;;;;;;;12.78;93.69;100501.78;5062113;28;20999;-53
2021/04/19 10:10:33;;;;;;;0.30;0.20;;;;;;;12.67;93.35;100499.47;5060450;28;20478;-53
2021/04/19 10:12:59;;;;;;;0.30;0.20;;;;;;;12.93;93.76;100490.56;5066396;28;20807;-53
2021/04/19 10:15:29;;;;;;;0.30;0.20;;;;;;;13.07;92.55;100498.97;5067879;28;20442;-52
2021/04/19 10:17:55;;;;;;;0.30;0.20;;;;;;;12.92;93.02;100502.19;5063056;28;20460;-52
2021/04/19 10:20:29;;;;;;;0.30;0.20;;;;;;;13.25;91.58;100495.66;5058510;28;20473;-53
2021/04/19 10:23:05;;;;;;;0.30;0.30;;;;;;;13.08;92.39;100494.50;5062668;28;20455;-53
2021/04/19 10:25:33;;;;;;;0.30;0.20;;;;;;;13.29;92.68;100496.41;5067158;28;20493;-52
2021/04/19 10:28:05;;;;;;;0.30;0.20;;;;;;;13.49;90.87;100491.22;5061187;28;20500;-53
2021/04/19 10:30:31;;;;;;;0.30;0.20;;;;;;;13.26;90.65;100494.72;5061198;28;20489;-53
2021/04/19 10:32:57;;;;;;;0.30;0.30;;;;;;;13.28;90.58;100497.34;5059993;28;20462;-53
2021/04/19 10:35:42;;;;;;;0.30;0.20;;;;;;;13.12;90.39;100486.31;5066073;28;20449;-53
2021/04/19 10:38:15;;;;;;;0.30;0.20;;;;;;;12.96;92.97;100491.34;5067084;28;20474;-53
2021/04/19 10:40:41;;;;;;;0.40;0.30;;;;;;;12.93;90.68;100495.91;5063285;28;20611;-53
2021/04/19 10:43:11;;;;;;;1.27;0.87;;;;;;;13.30;89.79;100498.19;5060590;28;20941;-52
2021/04/19 10:45:41;;;;;;;0.30;0.20;;;;;;;12.87;91.35;100488.97;5060825;28;20490;-53
2021/04/19 10:48:34;;;;;;;0.30;0.20;;;;;;;13.19;91.58;100492.34;5066982;28;20867;-53
2021/04/19 10:51:21;;;;;;;0.30;0.20;;;;;;;12.83;91.48;100495.34;5064128;28;20482;-52
2021/04/19 10:53:47;;;;;;;0.30;0.20;;;;;;;12.85;91.94;100493.50;5065516;28;20583;-53
2021/04/19 10:56:21;;;;;;;0.30;0.20;;;;;;;12.83;90.30;100495.34;5020141;28;20447;-53
2021/04/19 10:58:50;;;;;;;0.30;0.20;;;;;;;13.08;90.04;100495.38;5060599;28;20441;-53
2021/04/19 11:01:21;;;;;;;0.40;0.37;;;;;;;12.70;91.14;100488.69;5060392;28;20887;-52
2021/04/19 11:03:48;;;;;;;0.43;0.43;;;;;;;12.77;90.50;100492.03;5058310;28;20461;-53
2021/04/19 11:06:17;;;;;;;0.30;0.20;;;;;;;12.56;88.61;100486.50;5064943;28;20575;-53
2021/04/19 11:08:52;;;;;;;0.30;0.20;;;;;;;12.76;89.83;100483.16;5066203;28;20472;-52
2021/04/19 11:11:31;;;;;;;0.30;0.20;;;;;;;12.63;91.27;100493.38;5062807;28;20469;-53
2021/04/19 11:14:08;;;;;;;0.30;0.20;;;;;;;12.61;90.67;100487.22;5059403;28;20452;-53
2021/04/19 11:16:34;;;;;;;0.30;0.20;;;;;;;12.62;90.55;100488.97;5060023;28;20522;-52
2021/04/19 11:19:02;;;;;;;0.30;0.20;;;;;;;12.81;91.45;100491.00;5065701;28;20438;-53
2021/04/19 11:21:34;;;;;;;0.30;0.20;;;;;;;12.70;91.63;100491.34;5065785;28;20446;-53
2021/04/19 11:24:18;;;;;;;0.30;0.30;;;;;;;12.72;91.13;100485.03;5065956;28;20465;-52
2021/04/19 11:26:44;;;;;;;0.30;0.20;;;;;;;12.72;90.72;100486.84;5062418;28;21079;-52
2021/04/19 11:29:10;;;;;;;0.30;0.20;;;;;;;13.20;89.08;100478.94;5062706;28;20447;-53
2021/04/19 11:31:43;;;;;;;0.30;0.20;;;;;;;13.14;88.73;100470.25;5065822;28;20922;-53
2021/04/19 11:34:15;;;;;;;0.30;0.20;;;;;;;13.22;88.46;100474.41;5063362;28;20451;-53
2021/04/19 11:37:01;;;;;;;0.30;0.20;;;;;;;13.52;87.28;100487.56;5047293;28;20445;-53
2021/04/19 11:39:36;;;;;;;0.30;0.20;;;;;;;13.54;87.06;100472.34;5058761;28;20497;-53
2021/04/19 11:42:02;;;;;;;0.30;0.20;;;;;;;13.34;86.18;100482.00;5063523;28;20442;-53